createdAt,value
2023-02-16T00:00:02.490Z,6.2
2023-02-16T00:02:02.940Z,6.2
2023-02-16T00:04:09.493Z,6.2
2023-02-16T00:06:02.313Z,6.1
2023-02-16T00:08:03.209Z,6.1
2023-02-16T00:10:02.757Z,6.1
2023-02-16T00:12:12.172Z,6.1
2023-02-16T00:14:03.400Z,6.0
2023-02-16T00:16:02.801Z,6.0
2023-02-16T00:18:05.611Z,5.9
2023-02-16T00:20:02.445Z,5.9
2023-02-16T00:22:04.261Z,5.9
2023-02-16T00:24:02.288Z,5.9
2023-02-16T00:26:03.281Z,5.9
2023-02-16T00:28:08.568Z,5.9
2023-02-16T00:30:05.295Z,5.9
2023-02-16T00:32:05.563Z,5.9
2023-02-16T00:34:21.377Z,5.9
2023-02-16T00:36:02.314Z,5.9
2023-02-16T00:38:02.504Z,5.9
2023-02-16T00:40:03.407Z,5.8
2023-02-16T00:42:05.447Z,5.8
2023-02-16T00:44:02.476Z,5.8
2023-02-16T00:46:02.910Z,5.8
2023-02-16T00:48:03.119Z,5.7
2023-02-16T00:50:03.687Z,5.7
2023-02-16T00:52:21.391Z,5.6
2023-02-16T00:54:02.307Z,5.6
2023-02-16T00:56:03.364Z,5.5
2023-02-16T00:58:07.548Z,5.5
2023-02-16T01:00:07.508Z,5.4
2023-02-16T01:02:02.914Z,5.4
2023-02-16T01:04:07.576Z,5.4
2023-02-16T01:06:11.750Z,5.3
2023-02-16T01:08:12.528Z,5.3
2023-02-16T01:10:12.358Z,5.2
2023-02-16T01:12:05.067Z,5.2
2023-02-16T01:14:03.047Z,5.1
2023-02-16T01:16:02.654Z,5.0
2023-02-16T01:18:02.381Z,4.9
2023-02-16T01:20:02.387Z,4.8
2023-02-16T01:22:02.884Z,4.8
2023-02-16T01:26:02.941Z,4.6
2023-02-16T01:28:03.312Z,4.6
2023-02-16T01:30:02.952Z,4.4
2023-02-16T01:32:03.359Z,4.4
2023-02-16T01:34:02.885Z,4.3
2023-02-16T01:36:05.508Z,4.2
2023-02-16T01:38:04.091Z,4.2
2023-02-16T01:40:03.527Z,4.1
2023-02-16T01:42:15.972Z,4.0
2023-02-16T01:44:05.519Z,3.9
2023-02-16T01:46:10.484Z,3.8
2023-02-16T01:48:05.730Z,3.8
2023-02-16T01:50:15.993Z,3.7
2023-02-16T01:52:10.511Z,3.7
2023-02-16T01:54:15.637Z,3.7
2023-02-16T01:56:06.941Z,3.6
2023-02-16T01:58:08.983Z,3.6
2023-02-16T02:00:11.435Z,3.5
2023-02-16T02:02:04.722Z,3.5
2023-02-16T02:04:19.431Z,3.4
2023-02-16T02:06:03.566Z,3.4
2023-02-16T02:08:11.065Z,3.4
2023-02-16T02:10:10.046Z,3.4
2023-02-16T02:12:11.074Z,3.4
2023-02-16T02:14:11.767Z,3.4
2023-02-16T02:16:06.236Z,3.4
2023-02-16T02:18:03.695Z,3.4
2023-02-16T02:20:13.227Z,3.4
2023-02-16T02:22:31.048Z,3.4
2023-02-16T02:24:22.072Z,3.4
2023-02-16T02:26:22.123Z,3.4
2023-02-16T02:28:12.598Z,3.4
2023-02-16T02:30:20.623Z,3.4
2023-02-16T02:32:11.318Z,3.4
2023-02-16T02:34:15.550Z,3.4
2023-02-16T02:36:14.948Z,3.4
2023-02-16T02:38:11.503Z,3.4
2023-02-16T02:40:08.641Z,3.4
2023-02-16T02:42:10.016Z,3.4
2023-02-16T02:44:08.909Z,3.4
2023-02-16T02:46:08.772Z,3.4
2023-02-16T02:48:03.116Z,3.4
2023-02-16T02:50:02.690Z,3.4
2023-02-16T02:52:04.357Z,3.3
2023-02-16T02:54:18.469Z,3.3
2023-02-16T02:56:15.562Z,3.3
2023-02-16T02:58:14.372Z,3.2
2023-02-16T03:00:18.030Z,3.2
2023-02-16T03:02:03.804Z,3.1
2023-02-16T03:04:06.377Z,3.1
2023-02-16T03:08:13.613Z,2.9
2023-02-16T03:10:12.436Z,2.8
2023-02-16T03:12:15.378Z,2.8
2023-02-16T03:14:05.987Z,2.8
2023-02-16T03:16:08.678Z,2.8
2023-02-16T03:18:14.594Z,2.7
2023-02-16T03:20:16.066Z,2.7
2023-02-16T03:22:14.284Z,2.7
2023-02-16T03:24:16.969Z,2.6
2023-02-16T03:26:12.015Z,2.6
2023-02-16T03:28:16.700Z,2.6
2023-02-16T03:30:05.337Z,2.6
2023-02-16T03:32:03.187Z,2.6
2023-02-16T03:34:04.161Z,2.6
2023-02-16T03:36:04.754Z,2.5
2023-02-16T03:38:03.349Z,2.6
2023-02-16T03:40:12.212Z,2.5
2023-02-16T03:42:02.674Z,2.5
2023-02-16T03:44:03.335Z,2.5
2023-02-16T03:46:02.784Z,2.4
2023-02-16T03:48:04.192Z,2.4
2023-02-16T03:50:03.091Z,2.4
2023-02-16T03:52:02.806Z,2.4
2023-02-16T03:54:02.620Z,2.4
2023-02-16T03:56:02.890Z,2.3
2023-02-16T03:58:04.562Z,2.3
2023-02-16T04:00:03.260Z,2.3
2023-02-16T04:02:02.614Z,2.3
2023-02-16T04:04:02.622Z,2.3
2023-02-16T04:06:02.639Z,2.3
2023-02-16T04:08:04.646Z,2.2
2023-02-16T04:10:02.836Z,2.2
2023-02-16T04:12:12.223Z,2.3
2023-02-16T04:14:03.131Z,2.2
2023-02-16T04:16:02.662Z,2.2
2023-02-16T04:18:03.267Z,2.2
2023-02-16T04:20:03.892Z,2.2
2023-02-16T04:22:02.587Z,2.2
2023-02-16T04:24:05.680Z,2.2
2023-02-16T04:26:02.562Z,2.2
2023-02-16T04:28:03.204Z,2.2
2023-02-16T04:30:05.302Z,2.2
2023-02-16T04:32:03.481Z,2.2
2023-02-16T04:34:02.615Z,2.1
2023-02-16T04:36:03.338Z,2.1
2023-02-16T04:38:02.531Z,2.1
2023-02-16T04:40:03.106Z,2.1
2023-02-16T04:42:03.318Z,2.0
2023-02-16T04:44:03.985Z,1.9
2023-02-16T04:46:02.612Z,1.9
2023-02-16T04:48:03.284Z,1.9
2023-02-16T04:50:02.533Z,1.9
2023-02-16T04:52:03.608Z,1.8
2023-02-16T04:54:03.304Z,1.8
2023-02-16T04:56:02.941Z,1.8
2023-02-16T04:58:02.856Z,1.7
2023-02-16T05:00:02.973Z,1.7
2023-02-16T05:02:03.194Z,1.7
2023-02-16T05:04:03.672Z,1.6
2023-02-16T05:06:03.434Z,1.6
2023-02-16T05:08:03.307Z,1.5
2023-02-16T05:10:02.875Z,1.4
2023-02-16T05:12:12.005Z,1.4
2023-02-16T05:14:11.980Z,1.4
2023-02-16T05:16:02.887Z,1.4
2023-02-16T05:18:02.749Z,1.4
2023-02-16T05:20:03.979Z,1.3
2023-02-16T05:22:02.864Z,1.3
2023-02-16T05:24:05.152Z,1.3
2023-02-16T05:26:02.589Z,1.3
2023-02-16T05:28:02.697Z,1.3
2023-02-16T05:30:02.805Z,1.3
2023-02-16T05:32:04.860Z,1.3
2023-02-16T05:34:02.952Z,1.3
2023-02-16T05:36:02.654Z,1.2
2023-02-16T05:38:03.332Z,1.2
2023-02-16T05:40:02.596Z,1.2
2023-02-16T05:42:02.997Z,1.2
2023-02-16T05:44:05.261Z,1.2
2023-02-16T05:46:08.263Z,1.2
2023-02-16T05:48:02.520Z,1.2
2023-02-16T05:50:02.814Z,1.2
2023-02-16T05:54:03.471Z,1.2
2023-02-16T05:56:04.933Z,1.2
2023-02-16T05:58:03.433Z,1.2
2023-02-16T06:00:04.892Z,1.2
2023-02-16T06:02:03.121Z,1.2
2023-02-16T06:04:02.725Z,1.2
2023-02-16T06:06:04.102Z,1.2
2023-02-16T06:08:02.735Z,1.2
2023-02-16T06:10:02.755Z,1.2
2023-02-16T06:12:03.480Z,1.2
2023-02-16T06:14:03.661Z,1.2
2023-02-16T06:16:02.890Z,1.2
2023-02-16T06:18:02.936Z,1.2
2023-02-16T06:20:03.186Z,1.1
2023-02-16T06:22:02.883Z,1.1
2023-02-16T06:24:03.849Z,1.2
2023-02-16T06:26:02.574Z,1.2
2023-02-16T06:28:02.775Z,1.2
2023-02-16T06:30:02.865Z,1.1
2023-02-16T06:32:03.011Z,1.1
2023-02-16T06:34:03.373Z,1.1
2023-02-16T06:36:02.799Z,1.1
2023-02-16T06:38:02.540Z,1.1
2023-02-16T06:40:02.862Z,1.1
2023-02-16T06:42:02.544Z,1.1
2023-02-16T06:44:05.956Z,1.1
2023-02-16T06:46:03.771Z,1.1
2023-02-16T06:48:03.112Z,1.1
2023-02-16T06:50:04.338Z,1.1
2023-02-16T06:52:03.156Z,1.1
2023-02-16T06:54:03.125Z,1.1
2023-02-16T06:56:02.748Z,1.1
2023-02-16T06:58:04.213Z,1.1
2023-02-16T07:00:04.674Z,1.1
2023-02-16T07:02:02.785Z,1.0
2023-02-16T07:04:03.369Z,1.1
2023-02-16T07:06:03.416Z,1.0
2023-02-16T07:08:03.386Z,1.1
2023-02-16T07:10:03.658Z,1.1
2023-02-16T07:12:02.558Z,1.0
2023-02-16T07:14:03.240Z,0.9
2023-02-16T07:16:04.214Z,1.0
2023-02-16T07:18:03.117Z,1.0
2023-02-16T07:20:03.899Z,0.9
2023-02-16T07:22:05.043Z,0.9
2023-02-16T07:24:03.109Z,0.9
2023-02-16T07:26:02.595Z,0.9
2023-02-16T07:28:02.861Z,0.9
2023-02-16T07:30:02.638Z,0.9
2023-02-16T07:32:04.170Z,0.9
2023-02-16T07:34:03.552Z,0.9
2023-02-16T07:36:03.454Z,0.9
2023-02-16T07:38:03.820Z,0.9
2023-02-16T07:40:02.693Z,0.9
2023-02-16T07:42:02.546Z,0.9
2023-02-16T07:44:02.738Z,0.9
2023-02-16T07:46:03.148Z,0.9
2023-02-16T07:48:03.175Z,0.9
2023-02-16T07:50:02.535Z,0.9
2023-02-16T07:52:02.562Z,0.9
2023-02-16T07:54:02.608Z,0.9
2023-02-16T07:56:03.907Z,0.9
2023-02-16T07:58:04.314Z,0.9
2023-02-16T08:00:03.343Z,1.0
2023-02-16T08:02:03.298Z,1.0
2023-02-16T08:04:02.735Z,1.0
2023-02-16T08:06:03.933Z,1.0
2023-02-16T08:08:02.860Z,1.0
2023-02-16T08:10:02.904Z,1.1
2023-02-16T08:12:02.614Z,1.0
2023-02-16T08:14:02.685Z,1.1
2023-02-16T08:18:28.112Z,1.1
2023-02-16T08:20:05.781Z,1.1
2023-02-16T08:22:04.156Z,1.1
2023-02-16T08:24:05.904Z,1.1
2023-02-16T08:26:09.611Z,1.1
2023-02-16T08:28:03.735Z,1.1
2023-02-16T08:30:04.052Z,1.0
2023-02-16T08:32:07.333Z,1.0
2023-02-16T08:34:04.542Z,1.0
2023-02-16T08:36:03.119Z,0.9
2023-02-16T08:38:05.671Z,0.9
2023-02-16T08:40:04.195Z,0.9
2023-02-16T08:42:03.710Z,0.9
2023-02-16T08:44:04.384Z,0.9
2023-02-16T08:46:03.368Z,0.9
2023-02-16T08:48:02.625Z,0.9
2023-02-16T08:50:03.157Z,0.9
2023-02-16T08:52:03.744Z,0.8
2023-02-16T08:54:06.708Z,0.8
2023-02-16T08:56:05.584Z,0.8
2023-02-16T08:58:02.743Z,0.8
2023-02-16T09:00:12.183Z,0.9
2023-02-16T09:02:03.595Z,0.8
2023-02-16T09:04:02.557Z,0.8
2023-02-16T09:06:06.719Z,0.8
2023-02-16T09:08:03.651Z,0.8
2023-02-16T09:10:03.834Z,0.8
2023-02-16T09:20:03.906Z,0.8
2023-02-16T09:22:03.559Z,0.7
2023-02-16T09:24:04.634Z,0.7
2023-02-16T09:26:06.715Z,0.7
2023-02-16T09:28:04.232Z,0.7
2023-02-16T09:30:02.626Z,0.7
2023-02-16T09:32:03.153Z,0.7
2023-02-16T09:34:07.242Z,0.7
2023-02-16T09:36:06.716Z,0.7
2023-02-16T09:38:03.118Z,0.7
2023-02-16T09:40:04.272Z,0.7
2023-02-16T09:42:11.649Z,0.7
2023-02-16T09:44:13.226Z,0.7
2023-02-16T09:46:05.168Z,0.7
2023-02-16T09:48:03.219Z,0.7
2023-02-16T09:50:05.980Z,0.8
2023-02-16T09:52:11.908Z,0.8
2023-02-16T09:54:17.336Z,0.8
2023-02-16T09:56:16.510Z,0.8
2023-02-16T09:58:12.576Z,0.8
2023-02-16T10:00:07.484Z,0.8
2023-02-16T10:06:18.272Z,0.9
2023-02-16T10:08:06.534Z,0.9
2023-02-16T10:10:05.039Z,0.9
2023-02-16T10:12:06.577Z,0.9
2023-02-16T10:14:07.797Z,0.8
2023-02-16T10:16:06.460Z,0.9
2023-02-16T10:18:09.741Z,0.9
2023-02-16T10:20:09.164Z,0.9
2023-02-16T10:22:08.119Z,0.9
2023-02-16T10:24:05.607Z,0.9
2023-02-16T10:26:13.667Z,0.8
2023-02-16T10:28:14.370Z,0.8
2023-02-16T10:30:10.515Z,0.8
2023-02-16T10:32:13.077Z,0.8
2023-02-16T10:34:18.471Z,0.8
2023-02-16T10:36:16.059Z,0.8
2023-02-16T10:38:12.094Z,0.8
2023-02-16T10:40:23.283Z,0.8
2023-02-16T10:42:11.933Z,0.9
2023-02-16T10:44:10.071Z,0.8
2023-02-16T10:46:03.966Z,0.9
2023-02-16T10:48:03.144Z,0.9
2023-02-16T10:50:03.958Z,0.9
2023-02-16T10:52:05.166Z,0.9
2023-02-16T10:54:08.458Z,0.9
2023-02-16T10:56:12.562Z,0.9
2023-02-16T10:58:03.465Z,0.9
2023-02-16T11:00:07.906Z,0.9
2023-02-16T11:02:17.826Z,1.0
2023-02-16T11:04:04.426Z,1.0
2023-02-16T11:06:14.793Z,1.1
2023-02-16T11:08:04.775Z,1.1
2023-02-16T11:10:19.976Z,1.1
2023-02-16T11:12:13.228Z,1.1
2023-02-16T11:14:08.876Z,1.1
2023-02-16T11:16:06.599Z,1.1
2023-02-16T11:18:07.634Z,1.1
2023-02-16T11:20:06.438Z,1.1
2023-02-16T11:22:02.740Z,1.0
2023-02-16T11:24:02.600Z,1.0
2023-02-16T11:26:06.772Z,0.9
2023-02-16T11:28:04.830Z,0.9
2023-02-16T11:30:22.112Z,0.9
2023-02-16T11:32:07.620Z,0.9
2023-02-16T11:34:07.219Z,0.9
2023-02-16T11:36:05.067Z,0.9
2023-02-16T11:38:03.116Z,0.9
2023-02-16T11:40:08.759Z,0.9
2023-02-16T11:42:07.341Z,0.9
2023-02-16T11:44:03.889Z,0.8
2023-02-16T11:46:07.890Z,0.9
2023-02-16T11:48:07.612Z,0.8
2023-02-16T11:50:19.025Z,0.9
2023-02-16T11:52:21.839Z,0.9
2023-02-16T11:54:05.198Z,0.8
2023-02-16T11:56:20.101Z,0.9
2023-02-16T11:58:15.084Z,0.9
2023-02-16T12:00:15.399Z,0.9
2023-02-16T12:02:20.100Z,0.9
2023-02-16T12:04:16.153Z,0.9
2023-02-16T12:06:12.091Z,0.9
2023-02-16T12:08:22.036Z,0.9
2023-02-16T12:10:09.846Z,0.9
2023-02-16T12:12:13.187Z,0.9
2023-02-16T12:14:21.953Z,0.9
2023-02-16T12:16:16.827Z,0.9
2023-02-16T12:18:20.324Z,0.9
2023-02-16T12:20:13.039Z,0.9
2023-02-16T12:22:10.108Z,0.9
2023-02-16T12:24:09.829Z,0.9
2023-02-16T12:26:11.236Z,0.9
2023-02-16T12:28:13.364Z,0.9
2023-02-16T12:30:16.954Z,0.9
2023-02-16T12:32:15.796Z,0.9
2023-02-16T12:34:16.363Z,0.9
2023-02-16T12:36:23.512Z,0.9
2023-02-16T12:38:11.358Z,0.8
2023-02-16T12:40:15.278Z,0.8
2023-02-16T12:42:21.104Z,0.8
2023-02-16T12:44:06.631Z,0.8
2023-02-16T12:46:09.432Z,0.9
2023-02-16T12:48:13.878Z,0.9
2023-02-16T12:50:07.484Z,0.9
2023-02-16T12:52:07.162Z,0.9
2023-02-16T12:54:10.750Z,0.9
2023-02-16T12:56:07.513Z,0.9
2023-02-16T12:58:14.687Z,0.9
2023-02-16T13:00:11.000Z,0.9
2023-02-16T13:02:11.766Z,0.9
2023-02-16T13:04:13.873Z,0.9
2023-02-16T13:06:11.410Z,0.9
2023-02-16T13:08:14.838Z,0.9
2023-02-16T13:10:07.118Z,0.9
2023-02-16T13:12:11.202Z,0.9
2023-02-16T13:14:06.825Z,0.9
2023-02-16T13:16:27.503Z,0.9
2023-02-16T13:18:11.134Z,0.9
2023-02-16T13:20:04.738Z,0.9
2023-02-16T13:22:21.591Z,0.9
2023-02-16T13:24:12.212Z,0.9
2023-02-16T13:26:18.042Z,0.9
2023-02-16T13:28:12.009Z,0.9
2023-02-16T13:30:22.185Z,0.9
2023-02-16T13:32:21.270Z,0.9
2023-02-16T13:34:21.612Z,0.9
2023-02-16T13:36:18.688Z,0.9
2023-02-16T13:38:17.787Z,0.9
2023-02-16T13:40:20.026Z,0.9
2023-02-16T13:42:19.193Z,0.9
2023-02-16T13:44:07.946Z,0.9
2023-02-16T13:46:07.109Z,0.9
2023-02-16T13:48:02.569Z,0.9
2023-02-16T13:50:08.237Z,0.9
2023-02-16T13:52:03.585Z,0.9
2023-02-16T13:54:04.885Z,0.9
2023-02-16T13:56:13.759Z,1.0
2023-02-16T13:58:06.894Z,0.9
2023-02-16T14:00:05.672Z,1.0
2023-02-16T14:02:03.726Z,1.0
2023-02-16T14:04:03.792Z,1.0
2023-02-16T14:06:21.627Z,1.0
2023-02-16T14:08:18.712Z,0.9
2023-02-16T14:10:03.213Z,0.9
2023-02-16T14:12:12.121Z,0.9
2023-02-16T14:14:03.200Z,0.9
2023-02-16T14:16:08.951Z,0.9
2023-02-16T14:18:20.941Z,0.8
2023-02-16T14:20:08.539Z,0.8
2023-02-16T14:22:11.134Z,0.8
2023-02-16T14:24:06.298Z,0.8
2023-02-16T14:26:06.223Z,0.8
2023-02-16T14:28:06.479Z,0.8
2023-02-16T14:30:04.716Z,0.8
2023-02-16T14:32:14.966Z,0.8
2023-02-16T14:34:09.723Z,0.8
2023-02-16T14:36:14.318Z,0.8
2023-02-16T14:38:04.436Z,0.8
2023-02-16T14:40:17.600Z,0.8
2023-02-16T14:42:08.816Z,0.8
2023-02-16T14:44:21.770Z,0.8
2023-02-16T14:46:21.744Z,0.8
2023-02-16T14:48:14.105Z,0.8
2023-02-16T14:50:17.546Z,0.8
2023-02-16T14:52:21.583Z,0.9
2023-02-16T14:54:22.243Z,0.9
2023-02-16T14:56:21.109Z,0.9
2023-02-16T14:58:13.133Z,0.9
2023-02-16T15:00:13.845Z,0.9
2023-02-16T15:02:21.631Z,0.9
2023-02-16T15:04:03.252Z,1.0
2023-02-16T15:06:06.445Z,0.9
2023-02-16T15:08:11.968Z,0.9
2023-02-16T15:10:04.351Z,1.0
2023-02-16T15:12:17.388Z,1.0
2023-02-16T15:14:05.759Z,1.0
2023-02-16T15:16:05.621Z,1.0
2023-02-16T15:18:06.101Z,1.0
2023-02-16T15:20:10.205Z,1.0
2023-02-16T15:22:18.746Z,1.0
2023-02-16T15:24:03.502Z,0.9
2023-02-16T15:26:06.987Z,1.0
2023-02-16T15:28:05.256Z,1.0
2023-02-16T15:30:06.748Z,1.0
2023-02-16T15:32:08.484Z,1.0
2023-02-16T15:34:05.588Z,1.0
2023-02-16T15:36:07.548Z,1.1
2023-02-16T15:38:05.494Z,1.1
2023-02-16T15:40:27.788Z,1.1
2023-02-16T15:42:17.283Z,1.0
2023-02-16T15:44:05.490Z,1.0
2023-02-16T15:46:06.491Z,1.0
2023-02-16T15:48:14.952Z,1.0
2023-02-16T15:50:13.168Z,1.0
2023-02-16T15:52:02.702Z,1.0
2023-02-16T15:54:06.163Z,1.0
2023-02-16T15:56:12.445Z,1.0
2023-02-16T15:58:02.591Z,0.9
2023-02-16T16:00:08.660Z,0.9
2023-02-16T16:02:11.842Z,0.9
2023-02-16T16:04:06.915Z,0.9
2023-02-16T16:06:06.040Z,0.9
2023-02-16T16:08:04.031Z,0.9
2023-02-16T16:10:04.561Z,0.9
2023-02-16T16:12:06.432Z,0.9
2023-02-16T16:14:05.982Z,1.0
2023-02-16T16:16:04.363Z,1.1
2023-02-16T16:18:05.918Z,1.1
2023-02-16T16:20:21.574Z,1.1
2023-02-16T16:22:04.796Z,1.1
2023-02-16T16:24:06.398Z,1.2
2023-02-16T16:26:12.833Z,1.2
2023-02-16T16:28:05.700Z,1.3
2023-02-16T16:30:21.392Z,1.3
2023-02-16T16:32:04.154Z,1.4
2023-02-16T16:34:06.657Z,1.4
2023-02-16T16:36:11.922Z,1.5
2023-02-16T16:38:04.155Z,1.6
2023-02-16T16:40:07.451Z,1.6
2023-02-16T16:42:17.419Z,1.7
2023-02-16T16:44:02.598Z,1.8
2023-02-16T16:46:13.747Z,1.8
2023-02-16T16:48:09.892Z,1.9
2023-02-16T16:50:17.421Z,2.0
2023-02-16T16:52:03.652Z,2.1
2023-02-16T16:54:04.234Z,2.2
2023-02-16T16:56:02.622Z,2.3
2023-02-16T16:58:07.481Z,2.4
2023-02-16T17:00:03.308Z,2.5
2023-02-16T17:02:02.683Z,2.6
2023-02-16T17:04:03.295Z,2.8
2023-02-16T17:06:03.028Z,2.9
2023-02-16T17:08:02.590Z,3.1
2023-02-16T17:10:04.768Z,3.2
2023-02-16T17:12:02.810Z,3.2
2023-02-16T17:14:09.044Z,3.3
2023-02-16T17:16:06.420Z,3.3
2023-02-16T17:18:04.897Z,3.3
2023-02-16T17:20:02.610Z,3.3
2023-02-16T17:22:10.502Z,3.3
2023-02-16T17:24:03.740Z,3.3
2023-02-16T17:26:03.091Z,3.3
2023-02-16T17:28:03.852Z,3.3
2023-02-16T17:30:03.093Z,3.3
2023-02-16T17:32:03.150Z,3.3
2023-02-16T17:34:02.731Z,3.3
2023-02-16T17:36:06.201Z,3.3
2023-02-16T17:38:08.119Z,3.2
2023-02-16T17:40:03.859Z,3.2
2023-02-16T17:42:02.899Z,3.2
2023-02-16T17:44:03.656Z,3.3
2023-02-16T17:46:05.987Z,3.3
2023-02-16T17:48:02.761Z,3.3
2023-02-16T17:50:03.668Z,3.4
2023-02-16T17:52:02.602Z,3.4
2023-02-16T17:54:04.019Z,3.4
2023-02-16T17:56:02.591Z,3.5
2023-02-16T17:58:03.278Z,3.6
2023-02-16T18:00:04.506Z,3.6
2023-02-16T18:02:02.544Z,3.7
2023-02-16T18:04:03.801Z,3.8
2023-02-16T18:06:03.141Z,3.9
2023-02-16T18:08:04.004Z,4.1
2023-02-16T18:10:03.437Z,4.3
2023-02-16T18:12:02.809Z,4.5
2023-02-16T18:14:03.165Z,4.4
2023-02-16T18:16:04.404Z,4.6
2023-02-16T18:18:02.832Z,4.6
2023-02-16T18:20:04.041Z,4.6
2023-02-16T18:22:04.476Z,4.7
2023-02-16T18:24:02.788Z,4.8
2023-02-16T18:26:03.841Z,4.9
2023-02-16T18:28:02.604Z,4.9
2023-02-16T18:30:03.859Z,4.8
2023-02-16T18:32:04.000Z,4.8
2023-02-16T18:34:02.625Z,4.9
2023-02-16T18:36:04.613Z,5.0
2023-02-16T18:38:02.544Z,5.1
2023-02-16T18:40:03.856Z,5.1
2023-02-16T18:42:03.086Z,5.2
2023-02-16T18:44:02.935Z,5.3
2023-02-16T18:46:06.029Z,5.4
2023-02-16T18:48:02.810Z,5.4
2023-02-16T18:50:02.684Z,5.4
2023-02-16T18:52:02.646Z,5.6
2023-02-16T18:54:03.006Z,5.6
2023-02-16T18:56:03.577Z,5.7
2023-02-16T18:58:07.917Z,5.7
2023-02-16T19:00:04.485Z,5.7
2023-02-16T19:02:03.823Z,5.7
2023-02-16T19:04:05.749Z,5.7
2023-02-16T19:06:03.635Z,5.7
2023-02-16T19:08:02.574Z,5.7
2023-02-16T19:10:03.513Z,5.6
2023-02-16T19:12:02.762Z,5.6
2023-02-16T19:14:02.590Z,5.7
2023-02-16T19:16:03.780Z,5.6
2023-02-16T19:18:03.391Z,5.7
2023-02-16T19:20:03.191Z,5.8
2023-02-16T19:22:03.327Z,5.9
2023-02-16T19:24:02.880Z,6.1
2023-02-16T19:26:06.232Z,6.2
2023-02-16T19:28:02.603Z,6.2
2023-02-16T19:30:04.041Z,6.2
2023-02-16T19:32:02.756Z,6.3
2023-02-16T19:34:03.275Z,6.6
2023-02-16T19:36:06.320Z,6.7
2023-02-16T19:38:02.669Z,6.7
2023-02-16T19:40:02.620Z,6.7
2023-02-16T19:42:03.655Z,6.8
2023-02-16T19:44:03.578Z,6.8
2023-02-16T19:46:03.798Z,6.9
2023-02-16T19:48:03.227Z,6.9
2023-02-16T19:50:03.735Z,7.1
2023-02-16T19:52:03.663Z,7.1
2023-02-16T19:54:03.002Z,7.1
2023-02-16T19:56:04.722Z,7.1
2023-02-16T19:58:03.321Z,7.1
2023-02-16T20:00:04.739Z,7.1
2023-02-16T20:02:02.619Z,7.2
2023-02-16T20:04:02.836Z,7.2
2023-02-16T20:06:13.740Z,7.2
2023-02-16T20:08:02.853Z,7.3
2023-02-16T20:10:03.684Z,7.4
2023-02-16T20:12:02.913Z,7.4
2023-02-16T20:14:02.589Z,7.4
2023-02-16T20:16:03.876Z,7.6
2023-02-16T20:18:05.515Z,7.7
2023-02-16T20:20:02.676Z,7.8
2023-02-16T20:22:02.805Z,7.9
2023-02-16T20:24:05.131Z,7.9
2023-02-16T20:26:07.093Z,7.9
2023-02-16T20:28:02.519Z,7.9
2023-02-16T20:30:05.728Z,7.9
2023-02-16T20:32:04.521Z,7.9
2023-02-16T20:34:03.932Z,7.9
2023-02-16T20:36:04.613Z,7.9
2023-02-16T20:38:02.661Z,7.9
2023-02-16T20:40:02.672Z,7.9
2023-02-16T20:42:02.846Z,7.9
2023-02-16T20:44:04.712Z,7.9
2023-02-16T20:46:05.324Z,7.9
2023-02-16T20:48:03.725Z,7.9
2023-02-16T20:50:02.650Z,8.0
2023-02-16T20:52:03.403Z,8.0
2023-02-16T20:54:04.190Z,8.1
2023-02-16T20:56:06.780Z,8.1
2023-02-16T20:58:02.607Z,8.1
2023-02-16T21:00:04.484Z,8.0
2023-02-16T21:02:04.182Z,8.1
2023-02-16T21:04:04.921Z,8.1
2023-02-16T21:06:03.917Z,8.1
2023-02-16T21:08:03.062Z,8.2
2023-02-16T21:10:02.671Z,8.1
2023-02-16T21:12:02.786Z,8.2
2023-02-16T21:14:02.677Z,8.2
2023-02-16T21:16:02.752Z,8.2
2023-02-16T21:18:02.870Z,8.2
2023-02-16T21:20:02.654Z,8.2
2023-02-16T21:22:02.617Z,8.2
2023-02-16T21:24:02.772Z,8.2
2023-02-16T21:26:06.378Z,8.2
2023-02-16T21:28:03.936Z,8.3
2023-02-16T21:30:04.080Z,8.3
2023-02-16T21:32:03.373Z,8.3
2023-02-16T21:34:03.122Z,8.3
2023-02-16T21:36:05.704Z,8.3
2023-02-16T21:38:02.545Z,8.3
2023-02-16T21:40:12.633Z,8.3
2023-02-16T21:42:03.564Z,8.3
2023-02-16T21:44:04.670Z,8.3
2023-02-16T21:46:02.704Z,8.3
2023-02-16T21:48:12.229Z,8.3
2023-02-16T21:50:02.537Z,8.3
2023-02-16T21:52:02.828Z,8.2
2023-02-16T21:54:06.022Z,8.2
2023-02-16T21:56:14.896Z,8.2
2023-02-16T21:58:07.537Z,8.2
2023-02-16T22:00:05.719Z,8.2
2023-02-16T22:02:02.519Z,8.2
2023-02-16T22:04:03.954Z,8.2
2023-02-16T22:06:04.678Z,8.1
2023-02-16T22:08:03.396Z,8.1
2023-02-16T22:10:03.162Z,8.1
2023-02-16T22:12:03.342Z,8.0
2023-02-16T22:14:05.159Z,8.0
2023-02-16T22:16:10.107Z,8.0
2023-02-16T22:18:03.229Z,8.0
2023-02-16T22:20:02.801Z,8.0
2023-02-16T22:22:02.558Z,8.0
2023-02-16T22:24:03.004Z,8.1
2023-02-16T22:26:05.833Z,8.1
2023-02-16T22:28:02.725Z,8.1
2023-02-16T22:30:03.705Z,8.1
2023-02-16T22:32:02.855Z,8.1
2023-02-16T22:34:05.857Z,8.1
2023-02-16T22:36:09.607Z,8.2
2023-02-16T22:38:03.323Z,8.1
2023-02-16T22:40:02.598Z,8.1
2023-02-16T22:42:03.391Z,8.1
2023-02-16T22:44:02.617Z,8.0
2023-02-16T22:46:05.510Z,7.9
2023-02-16T22:48:02.997Z,7.9
2023-02-16T22:50:02.826Z,7.9
2023-02-16T22:52:02.533Z,7.9
2023-02-16T22:54:03.142Z,7.8
2023-02-16T22:56:06.207Z,7.8
2023-02-16T22:58:02.609Z,7.8
2023-02-16T23:00:04.318Z,7.8
2023-02-16T23:02:02.542Z,7.8
2023-02-16T23:04:02.682Z,7.8
2023-02-16T23:06:10.506Z,7.8
2023-02-16T23:08:03.103Z,7.8
2023-02-16T23:10:02.582Z,7.7
2023-02-16T23:12:03.962Z,7.7
2023-02-16T23:14:04.081Z,7.7
2023-02-16T23:16:05.324Z,7.7
2023-02-16T23:18:02.929Z,7.7
2023-02-16T23:20:03.027Z,7.7
2023-02-16T23:22:02.657Z,7.7
2023-02-16T23:24:03.592Z,7.7
2023-02-16T23:26:05.704Z,7.7
2023-02-16T23:28:04.835Z,7.7
2023-02-16T23:30:02.937Z,7.7
2023-02-16T23:32:02.584Z,7.7
2023-02-16T23:34:04.209Z,7.6
2023-02-16T23:36:03.627Z,7.6
2023-02-16T23:38:03.787Z,7.6
2023-02-16T23:40:03.157Z,7.6
2023-02-16T23:42:02.786Z,7.5
2023-02-16T23:44:03.576Z,7.4
2023-02-16T23:46:03.623Z,7.4
2023-02-16T23:48:03.592Z,7.4
2023-02-16T23:50:02.561Z,7.4
2023-02-16T23:52:02.531Z,7.4
2023-02-16T23:54:02.796Z,7.3
2023-02-16T23:56:05.768Z,7.3
2023-02-16T23:58:02.610Z,7.3
